sensor_id;sensor_type;location;lat;lon;timestamp;P1;durP1;ratioP1;P2;durP2;ratioP2
33190;SDS011;19554;42.652;23.364;2023-02-04T00:01:28;14.70;;;8.30;;
33190;SDS011;19554;42.652;23.364;2023-02-04T00:03:53;12.93;;;8.80;;
33190;SDS011;19554;42.652;23.364;2023-02-04T00:06:19;17.20;;;9.48;;
33190;SDS011;19554;42.652;23.364;2023-02-04T00:08:44;16.02;;;9.50;;
33190;SDS011;19554;42.652;23.364;2023-02-04T00:11:09;13.55;;;9.10;;
33190;SDS011;19554;42.652;23.364;2023-02-04T00:13:35;15.13;;;9.40;;
33190;SDS011;19554;42.652;23.364;2023-02-04T00:16:00;18.25;;;10.50;;
33190;SDS011;19554;42.652;23.364;2023-02-04T00:18:26;16.67;;;10.45;;
33190;SDS011;19554;42.652;23.364;2023-02-04T00:20:53;22.23;;;11.00;;
33190;SDS011;19554;42.652;23.364;2023-02-04T00:23:18;19.27;;;11.52;;
33190;SDS011;19554;42.652;23.364;2023-02-04T00:25:43;20.98;;;12.43;;
33190;SDS011;19554;42.652;23.364;2023-02-04T00:28:09;19.30;;;11.98;;
33190;SDS011;19554;42.652;23.364;2023-02-04T00:30:34;20.25;;;12.95;;
33190;SDS011;19554;42.652;23.364;2023-02-04T00:33:00;21.88;;;12.50;;
33190;SDS011;19554;42.652;23.364;2023-02-04T00:35:25;19.88;;;13.27;;
33190;SDS011;19554;42.652;23.364;2023-02-04T00:37:50;24.48;;;12.45;;
33190;SDS011;19554;42.652;23.364;2023-02-04T00:40:16;25.15;;;12.68;;
33190;SDS011;19554;42.652;23.364;2023-02-04T00:42:42;20.00;;;12.10;;
33190;SDS011;19554;42.652;23.364;2023-02-04T00:45:08;18.55;;;11.43;;
33190;SDS011;19554;42.652;23.364;2023-02-04T00:47:33;19.30;;;10.68;;
33190;SDS011;19554;42.652;23.364;2023-02-04T00:49:59;16.83;;;10.70;;
33190;SDS011;19554;42.652;23.364;2023-02-04T00:52:24;18.48;;;11.00;;
33190;SDS011;19554;42.652;23.364;2023-02-04T00:54:50;24.00;;;13.18;;
33190;SDS011;19554;42.652;23.364;2023-02-04T00:57:15;20.08;;;12.25;;
33190;SDS011;19554;42.652;23.364;2023-02-04T00:59:40;15.48;;;10.55;;
33190;SDS011;19554;42.652;23.364;2023-02-04T01:02:06;13.88;;;9.80;;
33190;SDS011;19554;42.652;23.364;2023-02-04T01:04:31;13.98;;;9.68;;
33190;SDS011;19554;42.652;23.364;2023-02-04T01:06:57;12.70;;;8.98;;
33190;SDS011;19554;42.652;23.364;2023-02-04T01:09:22;15.18;;;9.40;;
33190;SDS011;19554;42.652;23.364;2023-02-04T01:11:48;17.52;;;9.90;;
33190;SDS011;19554;42.652;23.364;2023-02-04T01:14:13;17.70;;;10.10;;
33190;SDS011;19554;42.652;23.364;2023-02-04T01:16:39;16.60;;;10.18;;
33190;SDS011;19554;42.652;23.364;2023-02-04T01:19:05;19.02;;;11.05;;
33190;SDS011;19554;42.652;23.364;2023-02-04T01:21:30;17.73;;;10.18;;
33190;SDS011;19554;42.652;23.364;2023-02-04T01:23:56;18.13;;;10.63;;
33190;SDS011;19554;42.652;23.364;2023-02-04T01:26:21;16.70;;;10.73;;
33190;SDS011;19554;42.652;23.364;2023-02-04T01:28:46;18.75;;;11.15;;
33190;SDS011;19554;42.652;23.364;2023-02-04T01:31:12;19.02;;;10.82;;
33190;SDS011;19554;42.652;23.364;2023-02-04T01:33:38;18.08;;;10.90;;
33190;SDS011;19554;42.652;23.364;2023-02-04T01:36:04;17.73;;;10.65;;
33190;SDS011;19554;42.652;23.364;2023-02-04T01:38:29;16.08;;;10.48;;
33190;SDS011;19554;42.652;23.364;2023-02-04T01:40:55;17.23;;;10.15;;
33190;SDS011;19554;42.652;23.364;2023-02-04T01:43:21;17.90;;;10.48;;
33190;SDS011;19554;42.652;23.364;2023-02-04T01:45:47;14.52;;;9.57;;
33190;SDS011;19554;42.652;23.364;2023-02-04T01:48:14;19.15;;;10.68;;
33190;SDS011;19554;42.652;23.364;2023-02-04T01:50:51;19.27;;;10.13;;
33190;SDS011;19554;42.652;23.364;2023-02-04T01:53:21;18.48;;;11.43;;
33190;SDS011;19554;42.652;23.364;2023-02-04T01:55:49;17.88;;;10.80;;
33190;SDS011;19554;42.652;23.364;2023-02-04T01:58:16;16.40;;;10.63;;
33190;SDS011;19554;42.652;23.364;2023-02-04T02:00:42;16.25;;;10.60;;
33190;SDS011;19554;42.652;23.364;2023-02-04T02:03:07;16.02;;;10.13;;
33190;SDS011;19554;42.652;23.364;2023-02-04T02:05:39;18.73;;;10.95;;
33190;SDS011;19554;42.652;23.364;2023-02-04T02:08:08;21.83;;;11.05;;
33190;SDS011;19554;42.652;23.364;2023-02-04T02:10:34;15.05;;;9.85;;
33190;SDS011;19554;42.652;23.364;2023-02-04T02:13:02;16.02;;;10.20;;
33190;SDS011;19554;42.652;23.364;2023-02-04T02:15:28;17.30;;;11.00;;
33190;SDS011;19554;42.652;23.364;2023-02-04T02:17:54;16.25;;;10.25;;
33190;SDS011;19554;42.652;23.364;2023-02-04T02:20:20;17.83;;;11.50;;
33190;SDS011;19554;42.652;23.364;2023-02-04T02:22:59;19.83;;;11.68;;
33190;SDS011;19554;42.652;23.364;2023-02-04T02:25:26;20.08;;;11.35;;
33190;SDS011;19554;42.652;23.364;2023-02-04T02:27:52;16.40;;;10.27;;
33190;SDS011;19554;42.652;23.364;2023-02-04T02:30:18;15.05;;;9.80;;
33190;SDS011;19554;42.652;23.364;2023-02-04T02:32:44;17.30;;;10.48;;
33190;SDS011;19554;42.652;23.364;2023-02-04T02:35:11;18.50;;;10.30;;
33190;SDS011;19554;42.652;23.364;2023-02-04T02:37:37;16.85;;;10.55;;
33190;SDS011;19554;42.652;23.364;2023-02-04T02:40:03;18.40;;;11.60;;
33190;SDS011;19554;42.652;23.364;2023-02-04T02:42:30;14.73;;;10.50;;
33190;SDS011;19554;42.652;23.364;2023-02-04T02:44:56;15.40;;;10.55;;
33190;SDS011;19554;42.652;23.364;2023-02-04T02:47:22;14.65;;;9.82;;
33190;SDS011;19554;42.652;23.364;2023-02-04T02:49:49;20.48;;;11.07;;
33190;SDS011;19554;42.652;23.364;2023-02-04T02:52:16;17.92;;;11.18;;
33190;SDS011;19554;42.652;23.364;2023-02-04T02:54:42;20.52;;;11.35;;
33190;SDS011;19554;42.652;23.364;2023-02-04T02:57:12;18.20;;;10.95;;
33190;SDS011;19554;42.652;23.364;2023-02-04T02:59:41;16.60;;;10.35;;
33190;SDS011;19554;42.652;23.364;2023-02-04T03:02:08;20.42;;;12.50;;
33190;SDS011;19554;42.652;23.364;2023-02-04T03:04:54;16.95;;;11.07;;
33190;SDS011;19554;42.652;23.364;2023-02-04T03:07:22;17.85;;;11.30;;
33190;SDS011;19554;42.652;23.364;2023-02-04T03:09:48;18.90;;;10.85;;
33190;SDS011;19554;42.652;23.364;2023-02-04T03:12:15;15.52;;;10.38;;
33190;SDS011;19554;42.652;23.364;2023-02-04T03:14:40;20.30;;;11.02;;
33190;SDS011;19554;42.652;23.364;2023-02-04T03:17:06;17.77;;;10.57;;
33190;SDS011;19554;42.652;23.364;2023-02-04T03:19:33;17.88;;;11.23;;
33190;SDS011;19554;42.652;23.364;2023-02-04T03:22:00;15.90;;;10.18;;
33190;SDS011;19554;42.652;23.364;2023-02-04T03:24:26;21.80;;;10.73;;
33190;SDS011;19554;42.652;23.364;2023-02-04T03:26:52;19.45;;;10.82;;
33190;SDS011;19554;42.652;23.364;2023-02-04T03:29:17;19.40;;;10.30;;
33190;SDS011;19554;42.652;23.364;2023-02-04T03:31:43;26.17;;;10.80;;
33190;SDS011;19554;42.652;23.364;2023-02-04T03:34:08;19.65;;;10.38;;
33190;SDS011;19554;42.652;23.364;2023-02-04T03:36:33;14.40;;;8.68;;
33190;SDS011;19554;42.652;23.364;2023-02-04T03:39:00;17.27;;;9.70;;
33190;SDS011;19554;42.652;23.364;2023-02-04T03:41:26;19.45;;;10.05;;
33190;SDS011;19554;42.652;23.364;2023-02-04T03:43:51;15.15;;;9.18;;
33190;SDS011;19554;42.652;23.364;2023-02-04T03:46:17;13.57;;;8.73;;
33190;SDS011;19554;42.652;23.364;2023-02-04T03:48:42;17.05;;;10.05;;
33190;SDS011;19554;42.652;23.364;2023-02-04T03:51:07;16.13;;;9.73;;
33190;SDS011;19554;42.652;23.364;2023-02-04T03:53:33;17.02;;;8.98;;
33190;SDS011;19554;42.652;23.364;2023-02-04T03:55:58;16.00;;;9.98;;
33190;SDS011;19554;42.652;23.364;2023-02-04T03:58:23;16.40;;;8.48;;
33190;SDS011;19554;42.652;23.364;2023-02-04T04:00:49;19.02;;;9.02;;
33190;SDS011;19554;42.652;23.364;2023-02-04T04:03:15;14.48;;;8.90;;
33190;SDS011;19554;42.652;23.364;2023-02-04T04:05:40;15.70;;;9.32;;
33190;SDS011;19554;42.652;23.364;2023-02-04T04:08:06;13.95;;;9.43;;
33190;SDS011;19554;42.652;23.364;2023-02-04T04:10:31;15.63;;;8.93;;
33190;SDS011;19554;42.652;23.364;2023-02-04T04:12:56;12.30;;;8.38;;
33190;SDS011;19554;42.652;23.364;2023-02-04T04:15:22;15.82;;;10.10;;
33190;SDS011;19554;42.652;23.364;2023-02-04T04:17:47;15.50;;;9.27;;
33190;SDS011;19554;42.652;23.364;2023-02-04T04:20:13;15.27;;;8.00;;
33190;SDS011;19554;42.652;23.364;2023-02-04T04:22:38;21.10;;;8.65;;
33190;SDS011;19554;42.652;23.364;2023-02-04T04:25:04;16.42;;;8.35;;
33190;SDS011;19554;42.652;23.364;2023-02-04T04:27:30;14.35;;;8.55;;
33190;SDS011;19554;42.652;23.364;2023-02-04T04:29:55;12.85;;;8.07;;
33190;SDS011;19554;42.652;23.364;2023-02-04T04:32:21;15.10;;;8.20;;
33190;SDS011;19554;42.652;23.364;2023-02-04T04:34:46;14.35;;;8.68;;
33190;SDS011;19554;42.652;23.364;2023-02-04T04:37:12;15.32;;;8.82;;
33190;SDS011;19554;42.652;23.364;2023-02-04T04:39:38;13.10;;;8.57;;
33190;SDS011;19554;42.652;23.364;2023-02-04T04:42:03;17.92;;;9.48;;
33190;SDS011;19554;42.652;23.364;2023-02-04T04:44:28;13.02;;;7.32;;
33190;SDS011;19554;42.652;23.364;2023-02-04T04:46:54;17.58;;;8.65;;
33190;SDS011;19554;42.652;23.364;2023-02-04T04:49:19;14.95;;;8.73;;
33190;SDS011;19554;42.652;23.364;2023-02-04T04:51:44;16.23;;;9.27;;
33190;SDS011;19554;42.652;23.364;2023-02-04T04:54:10;18.52;;;9.27;;
33190;SDS011;19554;42.652;23.364;2023-02-04T04:56:35;15.55;;;9.52;;
33190;SDS011;19554;42.652;23.364;2023-02-04T04:59:01;14.25;;;9.18;;
33190;SDS011;19554;42.652;23.364;2023-02-04T05:01:27;19.92;;;8.88;;
33190;SDS011;19554;42.652;23.364;2023-02-04T05:03:53;14.23;;;8.73;;
33190;SDS011;19554;42.652;23.364;2023-02-04T05:06:18;16.38;;;8.90;;
33190;SDS011;19554;42.652;23.364;2023-02-04T05:08:49;13.00;;;8.07;;
33190;SDS011;19554;42.652;23.364;2023-02-04T05:11:17;19.17;;;9.02;;
33190;SDS011;19554;42.652;23.364;2023-02-04T05:13:42;16.02;;;9.27;;
33190;SDS011;19554;42.652;23.364;2023-02-04T05:16:08;17.48;;;9.50;;
33190;SDS011;19554;42.652;23.364;2023-02-04T05:18:36;16.48;;;8.70;;
33190;SDS011;19554;42.652;23.364;2023-02-04T05:21:02;18.58;;;8.77;;
33190;SDS011;19554;42.652;23.364;2023-02-04T05:23:27;13.70;;;8.63;;
33190;SDS011;19554;42.652;23.364;2023-02-04T05:25:53;16.60;;;9.57;;
33190;SDS011;19554;42.652;23.364;2023-02-04T05:28:18;18.98;;;9.93;;
33190;SDS011;19554;42.652;23.364;2023-02-04T05:30:43;20.42;;;11.05;;
33190;SDS011;19554;42.652;23.364;2023-02-04T05:33:09;16.30;;;10.10;;
33190;SDS011;19554;42.652;23.364;2023-02-04T05:35:34;16.08;;;9.82;;
33190;SDS011;19554;42.652;23.364;2023-02-04T05:37:59;16.52;;;9.20;;
33190;SDS011;19554;42.652;23.364;2023-02-04T05:40:25;11.38;;;6.65;;
33190;SDS011;19554;42.652;23.364;2023-02-04T05:42:50;6.43;;;3.58;;
33190;SDS011;19554;42.652;23.364;2023-02-04T05:45:16;4.55;;;2.38;;
33190;SDS011;19554;42.652;23.364;2023-02-04T05:47:43;3.10;;;2.10;;
33190;SDS011;19554;42.652;23.364;2023-02-04T05:50:08;4.55;;;1.80;;
33190;SDS011;19554;42.652;23.364;2023-02-04T05:52:34;3.70;;;2.00;;
33190;SDS011;19554;42.652;23.364;2023-02-04T05:54:59;4.50;;;1.67;;
33190;SDS011;19554;42.652;23.364;2023-02-04T05:57:25;2.65;;;2.33;;
33190;SDS011;19554;42.652;23.364;2023-02-04T05:59:50;5.90;;;4.63;;
33190;SDS011;19554;42.652;23.364;2023-02-04T06:02:15;3.70;;;2.13;;
33190;SDS011;19554;42.652;23.364;2023-02-04T06:04:41;2.47;;;1.90;;
33190;SDS011;19554;42.652;23.364;2023-02-04T06:07:06;2.95;;;2.00;;
33190;SDS011;19554;42.652;23.364;2023-02-04T06:09:32;5.47;;;1.88;;
33190;SDS011;19554;42.652;23.364;2023-02-04T06:11:57;5.63;;;3.00;;
33190;SDS011;19554;42.652;23.364;2023-02-04T06:14:22;5.25;;;2.10;;
33190;SDS011;19554;42.652;23.364;2023-02-04T06:16:48;4.88;;;2.03;;
33190;SDS011;19554;42.652;23.364;2023-02-04T06:19:13;4.03;;;1.95;;
33190;SDS011;19554;42.652;23.364;2023-02-04T06:21:39;5.70;;;2.05;;
33190;SDS011;19554;42.652;23.364;2023-02-04T06:24:04;2.83;;;2.30;;
33190;SDS011;19554;42.652;23.364;2023-02-04T06:26:30;3.63;;;1.83;;
33190;SDS011;19554;42.652;23.364;2023-02-04T06:28:55;4.97;;;2.58;;
33190;SDS011;19554;42.652;23.364;2023-02-04T06:31:20;4.65;;;2.58;;
33190;SDS011;19554;42.652;23.364;2023-02-04T06:33:46;2.60;;;2.10;;
33190;SDS011;19554;42.652;23.364;2023-02-04T06:36:11;4.53;;;2.08;;
33190;SDS011;19554;42.652;23.364;2023-02-04T06:38:37;7.95;;;3.67;;
33190;SDS011;19554;42.652;23.364;2023-02-04T06:41:02;4.40;;;2.47;;
33190;SDS011;19554;42.652;23.364;2023-02-04T06:43:27;2.72;;;2.20;;
33190;SDS011;19554;42.652;23.364;2023-02-04T06:45:53;4.15;;;2.65;;
33190;SDS011;19554;42.652;23.364;2023-02-04T06:48:18;2.78;;;1.80;;
33190;SDS011;19554;42.652;23.364;2023-02-04T06:50:44;5.07;;;2.55;;
33190;SDS011;19554;42.652;23.364;2023-02-04T06:53:09;4.00;;;2.33;;
33190;SDS011;19554;42.652;23.364;2023-02-04T06:55:35;3.60;;;2.30;;
33190;SDS011;19554;42.652;23.364;2023-02-04T06:58:00;4.28;;;2.08;;
33190;SDS011;19554;42.652;23.364;2023-02-04T07:00:26;4.60;;;2.03;;
33190;SDS011;19554;42.652;23.364;2023-02-04T07:02:51;7.00;;;2.70;;
33190;SDS011;19554;42.652;23.364;2023-02-04T07:05:17;5.50;;;2.17;;
33190;SDS011;19554;42.652;23.364;2023-02-04T07:07:42;3.20;;;1.95;;
33190;SDS011;19554;42.652;23.364;2023-02-04T07:10:08;5.20;;;2.13;;
33190;SDS011;19554;42.652;23.364;2023-02-04T07:12:33;3.35;;;1.90;;
33190;SDS011;19554;42.652;23.364;2023-02-04T07:14:59;5.07;;;1.70;;
33190;SDS011;19554;42.652;23.364;2023-02-04T07:17:24;2.33;;;1.92;;
33190;SDS011;19554;42.652;23.364;2023-02-04T07:19:49;3.67;;;2.22;;
33190;SDS011;19554;42.652;23.364;2023-02-04T07:22:15;4.82;;;1.95;;
33190;SDS011;19554;42.652;23.364;2023-02-04T07:24:40;6.38;;;2.00;;
33190;SDS011;19554;42.652;23.364;2023-02-04T07:27:05;4.03;;;1.83;;
33190;SDS011;19554;42.652;23.364;2023-02-04T07:29:31;4.60;;;2.10;;
33190;SDS011;19554;42.652;23.364;2023-02-04T07:31:56;5.40;;;2.30;;
33190;SDS011;19554;42.652;23.364;2023-02-04T07:34:22;14.43;;;2.30;;
33190;SDS011;19554;42.652;23.364;2023-02-04T07:36:47;6.10;;;1.80;;
33190;SDS011;19554;42.652;23.364;2023-02-04T07:39:13;3.50;;;1.83;;
33190;SDS011;19554;42.652;23.364;2023-02-04T07:41:38;3.33;;;1.92;;
33190;SDS011;19554;42.652;23.364;2023-02-04T07:44:04;3.55;;;1.70;;
33190;SDS011;19554;42.652;23.364;2023-02-04T07:46:29;4.47;;;1.58;;
33190;SDS011;19554;42.652;23.364;2023-02-04T07:48:54;3.78;;;1.73;;
33190;SDS011;19554;42.652;23.364;2023-02-04T07:51:20;3.72;;;2.10;;
33190;SDS011;19554;42.652;23.364;2023-02-04T07:53:46;1.88;;;1.70;;
33190;SDS011;19554;42.652;23.364;2023-02-04T07:56:11;3.85;;;1.85;;
33190;SDS011;19554;42.652;23.364;2023-02-04T07:58:37;9.68;;;1.83;;
33190;SDS011;19554;42.652;23.364;2023-02-04T08:01:02;5.95;;;1.60;;
33190;SDS011;19554;42.652;23.364;2023-02-04T08:03:27;7.78;;;2.17;;
33190;SDS011;19554;42.652;23.364;2023-02-04T08:05:53;3.25;;;1.70;;
33190;SDS011;19554;42.652;23.364;2023-02-04T08:08:18;6.30;;;2.60;;
33190;SDS011;19554;42.652;23.364;2023-02-04T08:10:44;4.00;;;1.88;;
33190;SDS011;19554;42.652;23.364;2023-02-04T08:13:09;5.15;;;1.85;;
33190;SDS011;19554;42.652;23.364;2023-02-04T08:15:35;5.57;;;2.38;;
33190;SDS011;19554;42.652;23.364;2023-02-04T08:18:00;2.63;;;1.67;;
33190;SDS011;19554;42.652;23.364;2023-02-04T08:20:26;5.22;;;2.45;;
33190;SDS011;19554;42.652;23.364;2023-02-04T08:22:51;3.45;;;1.98;;
33190;SDS011;19554;42.652;23.364;2023-02-04T08:25:17;5.22;;;2.45;;
33190;SDS011;19554;42.652;23.364;2023-02-04T08:27:42;7.82;;;2.03;;
33190;SDS011;19554;42.652;23.364;2023-02-04T08:30:07;4.65;;;2.15;;
33190;SDS011;19554;42.652;23.364;2023-02-04T08:32:34;3.92;;;1.63;;
33190;SDS011;19554;42.652;23.364;2023-02-04T08:34:59;5.15;;;2.30;;
33190;SDS011;19554;42.652;23.364;2023-02-04T08:37:25;5.03;;;1.95;;
33190;SDS011;19554;42.652;23.364;2023-02-04T08:39:50;2.80;;;1.92;;
33190;SDS011;19554;42.652;23.364;2023-02-04T08:42:16;5.40;;;2.08;;
33190;SDS011;19554;42.652;23.364;2023-02-04T08:44:41;7.13;;;2.50;;
33190;SDS011;19554;42.652;23.364;2023-02-04T08:47:07;4.78;;;2.00;;
33190;SDS011;19554;42.652;23.364;2023-02-04T08:49:34;9.73;;;3.08;;
33190;SDS011;19554;42.652;23.364;2023-02-04T08:52:00;2.53;;;1.95;;
33190;SDS011;19554;42.652;23.364;2023-02-04T08:54:27;6.07;;;2.53;;
33190;SDS011;19554;42.652;23.364;2023-02-04T08:56:52;3.45;;;2.17;;
33190;SDS011;19554;42.652;23.364;2023-02-04T08:59:18;4.53;;;2.00;;
33190;SDS011;19554;42.652;23.364;2023-02-04T09:01:43;3.88;;;2.03;;
33190;SDS011;19554;42.652;23.364;2023-02-04T09:04:13;4.25;;;2.20;;
33190;SDS011;19554;42.652;23.364;2023-02-04T09:06:38;5.30;;;2.80;;
33190;SDS011;19554;42.652;23.364;2023-02-04T09:09:04;4.78;;;1.63;;
33190;SDS011;19554;42.652;23.364;2023-02-04T09:11:29;5.97;;;2.08;;
33190;SDS011;19554;42.652;23.364;2023-02-04T09:13:54;3.55;;;1.98;;
33190;SDS011;19554;42.652;23.364;2023-02-04T09:16:21;6.97;;;3.08;;
33190;SDS011;19554;42.652;23.364;2023-02-04T09:18:47;2.55;;;1.58;;
33190;SDS011;19554;42.652;23.364;2023-02-04T09:21:12;3.30;;;2.05;;
33190;SDS011;19554;42.652;23.364;2023-02-04T09:23:38;5.25;;;1.90;;
33190;SDS011;19554;42.652;23.364;2023-02-04T09:26:03;3.45;;;1.65;;
33190;SDS011;19554;42.652;23.364;2023-02-04T09:28:30;3.33;;;2.30;;
33190;SDS011;19554;42.652;23.364;2023-02-04T09:30:56;2.58;;;1.73;;
33190;SDS011;19554;42.652;23.364;2023-02-04T09:33:21;3.05;;;1.60;;
33190;SDS011;19554;42.652;23.364;2023-02-04T09:35:47;5.43;;;1.50;;
33190;SDS011;19554;42.652;23.364;2023-02-04T09:38:13;1.95;;;1.50;;
33190;SDS011;19554;42.652;23.364;2023-02-04T09:40:46;2.22;;;1.83;;
33190;SDS011;19554;42.652;23.364;2023-02-04T09:43:16;5.82;;;1.95;;
33190;SDS011;19554;42.652;23.364;2023-02-04T09:45:46;2.28;;;1.45;;
33190;SDS011;19554;42.652;23.364;2023-02-04T09:48:13;2.65;;;1.70;;
33190;SDS011;19554;42.652;23.364;2023-02-04T09:50:39;2.35;;;1.70;;
33190;SDS011;19554;42.652;23.364;2023-02-04T09:53:05;2.28;;;1.80;;
33190;SDS011;19554;42.652;23.364;2023-02-04T09:55:39;4.07;;;2.10;;
33190;SDS011;19554;42.652;23.364;2023-02-04T09:58:14;3.60;;;1.95;;
33190;SDS011;19554;42.652;23.364;2023-02-04T10:00:42;2.60;;;2.10;;
33190;SDS011;19554;42.652;23.364;2023-02-04T10:03:15;4.07;;;2.28;;
33190;SDS011;19554;42.652;23.364;2023-02-04T10:05:43;3.67;;;3.05;;
33190;SDS011;19554;42.652;23.364;2023-02-04T10:08:17;4.22;;;2.05;;
33190;SDS011;19554;42.652;23.364;2023-02-04T10:10:44;5.57;;;2.53;;
33190;SDS011;19554;42.652;23.364;2023-02-04T10:13:45;2.92;;;1.85;;
33190;SDS011;19554;42.652;23.364;2023-02-04T10:16:14;7.63;;;3.95;;
33190;SDS011;19554;42.652;23.364;2023-02-04T10:18:41;2.67;;;2.10;;
33190;SDS011;19554;42.652;23.364;2023-02-04T10:23:48;2.45;;;1.77;;
33190;SDS011;19554;42.652;23.364;2023-02-04T10:26:20;2.60;;;1.58;;
33190;SDS011;19554;42.652;23.364;2023-02-04T10:28:46;4.13;;;1.80;;
33190;SDS011;19554;42.652;23.364;2023-02-04T10:36:31;2.35;;;1.85;;
33190;SDS011;19554;42.652;23.364;2023-02-04T10:39:03;2.75;;;1.70;;
33190;SDS011;19554;42.652;23.364;2023-02-04T10:41:31;2.88;;;1.58;;
33190;SDS011;19554;42.652;23.364;2023-02-04T10:44:32;1.90;;;1.70;;
33190;SDS011;19554;42.652;23.364;2023-02-04T10:46:57;1.42;;;1.30;;
33190;SDS011;19554;42.652;23.364;2023-02-04T10:49:39;2.30;;;1.52;;
33190;SDS011;19554;42.652;23.364;2023-02-04T10:52:12;1.90;;;1.40;;
33190;SDS011;19554;42.652;23.364;2023-02-04T10:54:40;2.80;;;1.88;;
33190;SDS011;19554;42.652;23.364;2023-02-04T10:59:35;1.65;;;1.55;;
33190;SDS011;19554;42.652;23.364;2023-02-04T11:02:01;2.22;;;1.55;;
33190;SDS011;19554;42.652;23.364;2023-02-04T11:04:51;1.75;;;1.45;;
33190;SDS011;19554;42.652;23.364;2023-02-04T11:07:17;2.33;;;1.63;;
33190;SDS011;19554;42.652;23.364;2023-02-04T11:09:44;1.98;;;1.75;;
33190;SDS011;19554;42.652;23.364;2023-02-04T11:12:20;4.68;;;2.33;;
33190;SDS011;19554;42.652;23.364;2023-02-04T11:14:56;2.72;;;2.08;;
33190;SDS011;19554;42.652;23.364;2023-02-04T11:17:28;3.05;;;1.83;;
33190;SDS011;19554;42.652;23.364;2023-02-04T11:19:58;2.63;;;2.10;;
33190;SDS011;19554;42.652;23.364;2023-02-04T11:22:39;3.42;;;1.90;;
33190;SDS011;19554;42.652;23.364;2023-02-04T11:27:50;2.10;;;1.52;;
33190;SDS011;19554;42.652;23.364;2023-02-04T11:30:20;2.15;;;1.60;;
33190;SDS011;19554;42.652;23.364;2023-02-04T11:33:47;2.53;;;1.65;;
33190;SDS011;19554;42.652;23.364;2023-02-04T11:35:59;2.15;;;1.48;;
33190;SDS011;19554;42.652;23.364;2023-02-04T11:38:26;2.35;;;1.30;;
33190;SDS011;19554;42.652;23.364;2023-02-04T11:40:55;1.77;;;1.42;;
33190;SDS011;19554;42.652;23.364;2023-02-04T11:43:21;4.10;;;2.00;;
33190;SDS011;19554;42.652;23.364;2023-02-04T11:45:47;2.88;;;1.98;;
33190;SDS011;19554;42.652;23.364;2023-02-04T11:48:16;1.90;;;1.65;;
33190;SDS011;19554;42.652;23.364;2023-02-04T11:53:42;1.77;;;1.40;;
33190;SDS011;19554;42.652;23.364;2023-02-04T11:56:18;2.60;;;1.83;;
33190;SDS011;19554;42.652;23.364;2023-02-04T11:58:45;3.63;;;1.90;;
33190;SDS011;19554;42.652;23.364;2023-02-04T12:01:16;3.25;;;1.88;;
33190;SDS011;19554;42.652;23.364;2023-02-04T12:03:49;2.53;;;1.80;;
33190;SDS011;19554;42.652;23.364;2023-02-04T12:06:20;3.50;;;2.33;;
33190;SDS011;19554;42.652;23.364;2023-02-04T12:08:51;3.17;;;2.00;;
33190;SDS011;19554;42.652;23.364;2023-02-04T12:11:23;4.40;;;2.25;;
33190;SDS011;19554;42.652;23.364;2023-02-04T12:13:55;2.58;;;2.03;;
33190;SDS011;19554;42.652;23.364;2023-02-04T12:16:23;4.32;;;1.70;;
33190;SDS011;19554;42.652;23.364;2023-02-04T12:18:49;3.50;;;2.03;;
33190;SDS011;19554;42.652;23.364;2023-02-04T12:21:15;2.40;;;2.10;;
33190;SDS011;19554;42.652;23.364;2023-02-04T12:23:43;2.35;;;1.98;;
33190;SDS011;19554;42.652;23.364;2023-02-04T12:26:08;3.30;;;1.88;;
33190;SDS011;19554;42.652;23.364;2023-02-04T12:28:34;2.47;;;1.80;;
33190;SDS011;19554;42.652;23.364;2023-02-04T12:30:59;2.30;;;1.75;;
33190;SDS011;19554;42.652;23.364;2023-02-04T12:33:25;2.53;;;1.95;;
33190;SDS011;19554;42.652;23.364;2023-02-04T12:35:50;2.75;;;1.60;;
33190;SDS011;19554;42.652;23.364;2023-02-04T12:38:16;2.35;;;1.70;;
33190;SDS011;19554;42.652;23.364;2023-02-04T12:40:41;3.08;;;1.67;;
33190;SDS011;19554;42.652;23.364;2023-02-04T12:43:07;1.95;;;1.60;;
33190;SDS011;19554;42.652;23.364;2023-02-04T12:45:32;1.73;;;1.38;;
33190;SDS011;19554;42.652;23.364;2023-02-04T12:47:58;2.80;;;1.60;;
33190;SDS011;19554;42.652;23.364;2023-02-04T12:50:23;2.63;;;1.90;;
33190;SDS011;19554;42.652;23.364;2023-02-04T12:52:50;2.00;;;1.65;;
33190;SDS011;19554;42.652;23.364;2023-02-04T12:55:17;2.63;;;1.90;;
33190;SDS011;19554;42.652;23.364;2023-02-04T12:57:43;2.40;;;1.80;;
33190;SDS011;19554;42.652;23.364;2023-02-04T13:00:08;2.17;;;1.70;;
33190;SDS011;19554;42.652;23.364;2023-02-04T13:02:34;2.72;;;2.00;;
33190;SDS011;19554;42.652;23.364;2023-02-04T13:05:00;1.95;;;1.10;;
33190;SDS011;19554;42.652;23.364;2023-02-04T13:07:25;2.58;;;1.10;;
33190;SDS011;19554;42.652;23.364;2023-02-04T13:09:50;2.42;;;1.48;;
33190;SDS011;19554;42.652;23.364;2023-02-04T13:12:16;1.63;;;1.30;;
33190;SDS011;19554;42.652;23.364;2023-02-04T13:14:42;2.35;;;1.17;;
33190;SDS011;19554;42.652;23.364;2023-02-04T13:17:07;2.40;;;1.13;;
33190;SDS011;19554;42.652;23.364;2023-02-04T13:19:33;1.63;;;0.90;;
33190;SDS011;19554;42.652;23.364;2023-02-04T13:21:59;4.47;;;1.20;;
33190;SDS011;19554;42.652;23.364;2023-02-04T13:24:26;1.45;;;1.13;;
33190;SDS011;19554;42.652;23.364;2023-02-04T13:26:52;1.38;;;1.00;;
33190;SDS011;19554;42.652;23.364;2023-02-04T13:29:18;2.38;;;1.10;;
33190;SDS011;19554;42.652;23.364;2023-02-04T13:31:43;4.00;;;1.30;;
33190;SDS011;19554;42.652;23.364;2023-02-04T13:34:08;2.03;;;1.00;;
33190;SDS011;19554;42.652;23.364;2023-02-04T13:36:34;0.85;;;0.73;;
33190;SDS011;19554;42.652;23.364;2023-02-04T13:38:59;1.35;;;0.88;;
33190;SDS011;19554;42.652;23.364;2023-02-04T13:41:25;1.95;;;1.17;;
33190;SDS011;19554;42.652;23.364;2023-02-04T13:43:51;1.77;;;1.17;;
33190;SDS011;19554;42.652;23.364;2023-02-04T13:46:16;1.85;;;1.13;;
33190;SDS011;19554;42.652;23.364;2023-02-04T13:48:42;1.23;;;1.05;;
33190;SDS011;19554;42.652;23.364;2023-02-04T13:51:07;2.47;;;1.10;;
33190;SDS011;19554;42.652;23.364;2023-02-04T13:53:33;2.13;;;1.45;;
33190;SDS011;19554;42.652;23.364;2023-02-04T13:55:58;1.33;;;1.23;;
33190;SDS011;19554;42.652;23.364;2023-02-04T13:58:25;1.52;;;1.15;;
33190;SDS011;19554;42.652;23.364;2023-02-04T14:00:50;2.60;;;1.60;;
33190;SDS011;19554;42.652;23.364;2023-02-04T14:03:21;2.50;;;1.77;;
33190;SDS011;19554;42.652;23.364;2023-02-04T14:05:47;1.85;;;1.50;;
33190;SDS011;19554;42.652;23.364;2023-02-04T14:08:12;2.50;;;1.60;;
33190;SDS011;19554;42.652;23.364;2023-02-04T14:10:37;3.25;;;1.73;;
33190;SDS011;19554;42.652;23.364;2023-02-04T14:13:03;1.88;;;1.60;;
33190;SDS011;19554;42.652;23.364;2023-02-04T14:15:28;3.60;;;1.70;;
33190;SDS011;19554;42.652;23.364;2023-02-04T14:17:53;2.75;;;2.08;;
33190;SDS011;19554;42.652;23.364;2023-02-04T14:20:19;2.08;;;1.80;;
33190;SDS011;19554;42.652;23.364;2023-02-04T14:22:44;2.10;;;1.83;;
33190;SDS011;19554;42.652;23.364;2023-02-04T14:25:09;3.85;;;1.90;;
33190;SDS011;19554;42.652;23.364;2023-02-04T14:27:35;2.85;;;2.40;;
33190;SDS011;19554;42.652;23.364;2023-02-04T14:30:02;3.40;;;2.20;;
33190;SDS011;19554;42.652;23.364;2023-02-04T14:32:29;4.10;;;2.90;;
33190;SDS011;19554;42.652;23.364;2023-02-04T14:34:55;3.28;;;2.50;;
33190;SDS011;19554;42.652;23.364;2023-02-04T14:37:20;2.50;;;2.30;;
33190;SDS011;19554;42.652;23.364;2023-02-04T14:39:46;2.78;;;1.92;;